createdAt,value
2019-04-06T00:02:02.051Z,151.50
2019-04-06T00:05:06.604Z,131.85
2019-04-06T00:08:09.921Z,138.20
2019-04-06T00:11:13.263Z,143.00
2019-04-06T00:14:16.597Z,135.80
2019-04-06T00:17:19.940Z,130.30
2019-04-06T00:20:23.213Z,137.10
2019-04-06T00:23:26.539Z,138.85
2019-04-06T00:26:29.959Z,130.22
2019-04-06T00:29:33.234Z,140.10
2019-04-06T00:32:38.206Z,141.25
2019-04-06T00:35:41.573Z,134.32
2019-04-06T00:38:44.887Z,136.22
2019-04-06T00:41:48.216Z,141.37
2019-04-06T00:44:51.521Z,128.12
2019-04-06T00:47:54.837Z,127.15
2019-04-06T00:50:58.216Z,119.35
2019-04-06T00:54:01.532Z,115.75
2019-04-06T00:57:04.850Z,130.05
2019-04-06T01:00:08.197Z,131.35
2019-04-06T01:03:11.504Z,123.53
2019-04-06T01:06:14.816Z,134.17
2019-04-06T01:09:18.285Z,137.10
2019-04-06T01:12:21.596Z,134.67
2019-04-06T01:15:24.917Z,129.35
2019-04-06T01:18:28.234Z,134.50
2019-04-06T01:21:31.531Z,136.32
2019-04-06T01:24:34.844Z,144.80
2019-04-06T01:27:38.182Z,136.47
2019-04-06T01:30:41.480Z,139.57
2019-04-06T01:33:44.824Z,141.10
2019-04-06T01:36:48.116Z,127.35
2019-04-06T01:39:51.462Z,117.80
2019-04-06T01:42:54.765Z,123.78
2019-04-06T01:45:58.071Z,130.05
2019-04-06T01:49:01.399Z,120.60
2019-04-06T01:52:04.716Z,139.10
2019-04-06T01:55:08.008Z,144.37
2019-04-06T01:58:11.429Z,145.20
2019-04-06T02:01:25.404Z,135.97
2019-04-06T02:04:28.801Z,147.83
2019-04-06T02:07:32.161Z,148.93
2019-04-06T02:10:35.454Z,165.77
2019-04-06T02:13:38.864Z,154.47
2019-04-06T02:16:42.197Z,156.57
2019-04-06T02:19:45.508Z,156.27
2019-04-06T02:22:48.807Z,170.90
2019-04-06T02:25:52.115Z,160.90
2019-04-06T02:28:55.463Z,145.97
2019-04-06T02:32:16.716Z,144.68
2019-04-06T02:35:37.804Z,149.13
2019-04-06T02:38:45.274Z,136.77
2019-04-06T02:41:50.167Z,131.90
2019-04-06T02:44:53.496Z,127.07
2019-04-06T02:47:56.881Z,139.87
2019-04-06T02:51:00.180Z,136.13
2019-04-06T02:54:03.557Z,131.33
2019-04-06T02:57:06.819Z,134.00
2019-04-06T03:00:10.626Z,124.47
2019-04-06T03:03:13.938Z,127.03
2019-04-06T03:06:17.281Z,129.80
2019-04-06T03:09:20.582Z,136.90
2019-04-06T03:12:23.913Z,122.90
2019-04-06T03:15:27.205Z,128.27
2019-04-06T03:18:30.545Z,147.53
2019-04-06T03:21:33.901Z,150.97
2019-04-06T03:24:37.260Z,150.78
2019-04-06T03:27:40.724Z,158.40
2019-04-06T03:30:44.494Z,138.63
2019-04-06T03:33:47.958Z,145.33
2019-04-06T03:36:51.290Z,153.37
2019-04-06T03:39:54.740Z,163.43
2019-04-06T03:42:58.057Z,164.60
2019-04-06T03:46:01.386Z,163.43
2019-04-06T03:49:04.734Z,174.57
2019-04-06T03:52:08.078Z,158.43
2019-04-06T03:55:11.480Z,156.60
2019-04-06T03:58:14.985Z,150.53
2019-04-06T04:01:18.339Z,173.07
2019-04-06T04:04:25.601Z,163.97
2019-04-06T04:07:28.958Z,178.63
2019-04-06T04:10:36.265Z,173.60
2019-04-06T04:13:39.762Z,163.17
2019-04-06T04:16:43.083Z,170.87
2019-04-06T04:19:46.462Z,172.13
2019-04-06T04:22:49.824Z,172.10
2019-04-06T04:25:53.162Z,197.57
2019-04-06T04:28:56.483Z,166.70
2019-04-06T04:31:59.809Z,185.07
2019-04-06T04:35:03.151Z,154.85
2019-04-06T04:38:06.479Z,144.37
2019-04-06T04:41:09.904Z,143.23
2019-04-06T04:44:13.165Z,209.50
2019-04-06T04:47:16.546Z,329.15
2019-04-06T04:50:20.271Z,197.00
2019-04-06T04:53:23.684Z,324.33
2019-04-06T04:56:27.014Z,474.75
2019-04-06T04:59:30.413Z,658.30
2019-04-06T05:02:33.794Z,645.40
2019-04-06T05:05:37.217Z,630.27
2019-04-06T05:08:40.534Z,248.83
2019-04-06T05:11:44.000Z,656.92
2019-04-06T05:15:04.841Z,676.10
2019-04-06T05:18:08.200Z,776.23
2019-04-06T05:21:11.754Z,166.77
2019-04-06T05:24:15.070Z,197.03
2019-04-06T05:27:18.438Z,654.87
2019-04-06T05:30:21.772Z,149.80
2019-04-06T05:33:25.094Z,140.03
2019-04-06T05:36:28.533Z,222.05
2019-04-06T05:39:31.827Z,177.75
2019-04-06T05:42:35.132Z,139.50
2019-04-06T05:45:38.433Z,337.02
2019-04-06T05:48:41.940Z,398.73
2019-04-06T05:51:45.252Z,211.83
2019-04-06T05:54:48.750Z,172.85
2019-04-06T05:58:02.915Z,373.90
2019-04-06T06:00:57.108Z,411.08
2019-04-06T06:04:00.525Z,258.15
2019-04-06T06:07:03.858Z,542.53
2019-04-06T06:10:07.632Z,695.17
2019-04-06T06:13:11.079Z,491.82
2019-04-06T06:16:14.487Z,355.10
2019-04-06T06:19:17.840Z,382.67
2019-04-06T06:22:21.316Z,205.47
2019-04-06T06:25:24.645Z,215.15
2019-04-06T06:28:28.026Z,166.55
2019-04-06T06:31:31.568Z,435.00
2019-04-06T06:34:34.962Z,318.33
2019-04-06T06:37:38.361Z,164.93
2019-04-06T06:40:41.697Z,252.60
2019-04-06T06:43:45.524Z,108.63
2019-04-06T06:46:48.953Z,297.05
2019-04-06T06:49:52.334Z,244.65
2019-04-06T06:52:55.698Z,166.62
2019-04-06T06:55:59.000Z,95.53
2019-04-06T06:59:02.312Z,192.45
2019-04-06T07:02:05.848Z,105.30
2019-04-06T07:05:09.168Z,128.30
2019-04-06T07:08:12.552Z,337.65
2019-04-06T07:11:15.936Z,159.30
2019-04-06T07:14:19.410Z,94.55
2019-04-06T07:17:22.763Z,90.38
2019-04-06T07:20:26.060Z,95.83
2019-04-06T07:23:29.402Z,123.45
2019-04-06T07:26:32.708Z,94.28
2019-04-06T07:29:36.051Z,120.77
2019-04-06T07:32:39.401Z,92.42
2019-04-06T07:35:42.724Z,121.65
2019-04-06T07:38:47.846Z,120.15
2019-04-06T07:41:51.187Z,102.35
2019-04-06T07:44:54.540Z,118.62
2019-04-06T07:47:57.864Z,111.92
2019-04-06T07:51:01.311Z,86.78
2019-04-06T07:54:04.725Z,88.40
2019-04-06T07:57:08.057Z,109.42
2019-04-06T08:00:11.387Z,126.20
2019-04-06T08:03:14.812Z,89.00
2019-04-06T08:06:18.349Z,135.57
2019-04-06T08:09:21.757Z,89.42
2019-04-06T08:12:25.035Z,74.03
2019-04-06T08:15:28.389Z,76.02
2019-04-06T08:18:31.783Z,70.60
2019-04-06T08:21:35.132Z,77.82
2019-04-06T08:24:38.477Z,71.02
2019-04-06T08:27:41.985Z,71.55
2019-04-06T08:30:48.816Z,70.08
2019-04-06T08:33:52.478Z,73.30
2019-04-06T08:36:56.356Z,70.95
2019-04-06T08:39:59.890Z,75.35
2019-04-06T08:43:03.156Z,76.17
2019-04-06T08:46:06.882Z,80.65
2019-04-06T08:49:10.188Z,80.12
2019-04-06T08:52:13.624Z,74.22
2019-04-06T08:55:16.993Z,69.12
2019-04-06T08:58:20.425Z,71.33
2019-04-06T09:01:23.753Z,69.55
2019-04-06T09:04:27.321Z,66.30
2019-04-06T09:07:30.653Z,67.50
2019-04-06T09:10:34.319Z,66.50
2019-04-06T09:13:40.019Z,59.67
2019-04-06T09:16:42.692Z,64.17
2019-04-06T09:19:46.014Z,69.12
2019-04-06T09:22:49.480Z,63.85
2019-04-06T09:25:52.899Z,60.52
2019-04-06T09:28:56.196Z,68.05
2019-04-06T09:31:59.992Z,63.17
2019-04-06T09:35:03.438Z,65.15
2019-04-06T09:38:08.396Z,56.95
2019-04-06T09:41:11.782Z,60.80
2019-04-06T09:44:22.906Z,57.03
2019-04-06T09:47:31.503Z,57.38
2019-04-06T09:50:52.869Z,55.17
2019-04-06T09:54:07.614Z,57.60
2019-04-06T09:57:12.739Z,50.50
2019-04-06T10:00:23.397Z,44.67
2019-04-06T10:03:31.178Z,55.30
2019-04-06T10:06:38.927Z,46.23
2019-04-06T10:09:59.953Z,50.15
2019-04-06T10:13:11.015Z,49.75
2019-04-06T10:16:16.151Z,47.17
2019-04-06T10:19:30.453Z,46.95
2019-04-06T10:22:35.423Z,47.27
2019-04-06T10:25:56.474Z,44.93
2019-04-06T10:29:16.268Z,48.48
2019-04-06T10:32:27.140Z,42.23
2019-04-06T10:35:32.235Z,48.00
2019-04-06T10:38:43.084Z,47.58
2019-04-06T10:42:06.323Z,43.63
2019-04-06T10:45:11.388Z,43.92
2019-04-06T10:48:32.888Z,72.92
2019-04-06T10:51:46.818Z,43.57
2019-04-06T10:55:08.221Z,45.17
2019-04-06T10:58:25.199Z,51.53
2019-04-06T11:01:42.197Z,42.58
2019-04-06T11:04:59.362Z,46.77
2019-04-06T11:08:06.360Z,40.28
2019-04-06T11:14:53.747Z,39.42
2019-04-06T11:18:01.592Z,43.52
2019-04-06T11:21:09.352Z,37.67
2019-04-06T11:24:20.323Z,35.35
2019-04-06T11:27:34.481Z,29.82
2019-04-06T11:30:48.260Z,28.07
2019-04-06T11:33:53.515Z,24.57
2019-04-06T11:37:18.514Z,25.72
2019-04-06T11:40:26.228Z,20.92
2019-04-06T11:43:49.499Z,16.95
2019-04-06T11:47:12.830Z,18.27
2019-04-06T11:50:33.031Z,22.22
2019-04-06T11:53:44.071Z,24.92
2019-04-06T11:57:06.827Z,22.93
2019-04-06T12:00:24.500Z,28.50
2019-04-06T12:03:33.358Z,26.50
2019-04-06T12:06:56.198Z,29.85
2019-04-06T12:10:06.913Z,25.57
2019-04-06T12:13:11.994Z,25.57
2019-04-06T12:16:20.006Z,28.67
2019-04-06T12:19:27.754Z,33.42
2019-04-06T12:22:50.080Z,27.95
2019-04-06T12:26:03.123Z,29.82
2019-04-06T12:29:08.181Z,28.60
2019-04-06T12:32:19.371Z,32.98
2019-04-06T12:35:41.176Z,31.75
2019-04-06T12:38:58.367Z,34.27
2019-04-06T12:42:09.259Z,32.63
2019-04-06T12:45:26.308Z,31.73
2019-04-06T12:48:36.821Z,33.95
2019-04-06T12:51:44.614Z,30.48
2019-04-06T12:54:52.105Z,33.58
2019-04-06T12:57:57.223Z,34.83
2019-04-06T13:01:17.022Z,34.55
2019-04-06T13:04:24.776Z,29.57
2019-04-06T13:07:29.869Z,30.75
2019-04-06T13:10:40.849Z,33.63
2019-04-06T13:13:48.553Z,26.00
2019-04-06T13:16:59.213Z,28.35
2019-04-06T13:20:19.653Z,27.27
2019-04-06T13:23:27.391Z,28.52
2019-04-06T13:26:38.560Z,27.17
2019-04-06T13:29:49.098Z,21.52
2019-04-06T13:32:54.141Z,24.65
2019-04-06T13:35:59.154Z,31.90
2019-04-06T13:39:07.215Z,26.87
2019-04-06T13:42:14.716Z,27.17
2019-04-06T13:45:35.030Z,26.00
2019-04-06T13:48:42.717Z,28.10
2019-04-06T13:51:50.582Z,28.75
2019-04-06T13:55:07.544Z,28.75
2019-04-06T13:58:15.750Z,23.32
2019-04-06T14:01:20.865Z,22.35
2019-04-06T14:04:25.882Z,25.85
2019-04-06T14:07:33.868Z,22.73
2019-04-06T14:10:53.637Z,24.57
2019-04-06T14:14:14.908Z,21.02
2019-04-06T14:17:29.095Z,24.02
2019-04-06T14:20:36.815Z,20.55
2019-04-06T14:23:44.282Z,15.25
2019-04-06T14:27:07.650Z,17.92
2019-04-06T14:30:12.653Z,16.35
2019-04-06T14:33:33.937Z,17.02
2019-04-06T14:36:44.435Z,15.70
2019-04-06T14:39:49.584Z,15.85
2019-04-06T14:43:06.851Z,18.17
2019-04-06T14:46:14.854Z,21.55
2019-04-06T14:49:29.617Z,17.23
2019-04-06T14:52:35.774Z,17.45
2019-04-06T14:55:41.210Z,19.02
2019-04-06T14:58:58.430Z,18.85
2019-04-06T15:02:19.804Z,17.40
2019-04-06T15:05:24.833Z,16.93
2019-04-06T15:08:38.837Z,17.52
2019-04-06T15:11:43.920Z,18.12
2019-04-06T15:14:58.364Z,19.15
2019-04-06T15:18:03.809Z,16.85
2019-04-06T15:21:25.562Z,19.25
2019-04-06T15:24:33.055Z,14.47
2019-04-06T15:27:38.133Z,16.07
2019-04-06T15:30:43.152Z,14.20
2019-04-06T15:33:54.151Z,16.65
2019-04-06T15:37:06.916Z,19.73
2019-04-06T15:40:11.496Z,17.85
2019-04-06T15:43:18.796Z,18.73
2019-04-06T15:46:23.310Z,14.40
2019-04-06T15:49:28.353Z,17.95
2019-04-06T15:52:45.739Z,15.28
2019-04-06T15:55:51.048Z,19.02
2019-04-06T15:59:02.071Z,16.17
2019-04-06T16:02:10.037Z,15.60
2019-04-06T16:05:21.430Z,17.02
2019-04-06T16:08:26.528Z,17.43
2019-04-06T16:11:42.141Z,18.62
2019-04-06T16:15:02.327Z,14.53
2019-04-06T16:18:07.374Z,17.60
2019-04-06T16:21:18.552Z,15.78
2019-04-06T16:24:35.540Z,18.85
2019-04-06T16:27:43.725Z,17.12
2019-04-06T16:31:04.146Z,18.12
2019-04-06T16:34:18.698Z,17.25
2019-04-06T16:37:26.863Z,15.10
2019-04-06T16:40:50.232Z,20.23
2019-04-06T16:43:55.264Z,24.55
2019-04-06T16:47:06.040Z,21.52
2019-04-06T16:50:16.724Z,26.25
2019-04-06T16:53:37.735Z,19.98
2019-04-06T16:56:43.013Z,25.68
2019-04-06T16:59:54.046Z,22.35
2019-04-06T17:02:59.088Z,19.67
2019-04-06T17:06:04.238Z,21.05
2019-04-06T17:09:14.664Z,24.43
2019-04-06T17:12:25.682Z,20.60
2019-04-06T17:15:40.089Z,27.13
2019-04-06T17:19:01.548Z,18.02
2019-04-06T17:22:06.842Z,20.10
2019-04-06T17:25:12.270Z,23.77
2019-04-06T17:28:33.966Z,18.87
2019-04-06T17:31:39.393Z,18.67
2019-04-06T17:34:53.430Z,19.52
2019-04-06T17:38:08.929Z,20.25
2019-04-06T17:41:29.249Z,21.90
2019-04-06T17:44:34.870Z,23.42
2019-04-06T17:47:42.973Z,21.65
2019-04-06T17:50:48.010Z,20.60
2019-04-06T17:54:09.608Z,19.07
2019-04-06T17:57:26.528Z,21.10
2019-04-06T18:00:37.120Z,19.20
2019-04-06T18:03:59.704Z,20.02
2019-04-06T18:07:06.435Z,21.15
2019-04-06T18:10:13.903Z,24.75
2019-04-06T18:13:21.722Z,24.95
2019-04-06T18:16:26.933Z,26.68
2019-04-06T18:19:30.347Z,25.08
2019-04-06T18:22:33.746Z,23.07
2019-04-06T18:25:37.753Z,31.07
2019-04-06T18:28:41.154Z,27.73
2019-04-06T18:31:49.139Z,21.00
2019-04-06T18:34:52.610Z,23.27
2019-04-06T18:37:57.638Z,20.12
2019-04-06T18:41:01.430Z,22.75
2019-04-06T18:44:04.921Z,29.23
2019-04-06T18:47:08.601Z,24.20
2019-04-06T18:50:12.878Z,23.52
2019-04-06T18:53:16.354Z,28.83
2019-04-06T18:56:20.041Z,25.62
2019-04-06T18:59:23.807Z,28.15
2019-04-06T19:02:27.202Z,30.25
2019-04-06T19:05:30.692Z,24.75
2019-04-06T19:08:34.306Z,30.05
2019-04-06T19:11:38.130Z,23.83
2019-04-06T19:14:41.609Z,24.67
2019-04-06T19:17:45.161Z,29.55
2019-04-06T19:20:48.565Z,30.40
2019-04-06T19:23:51.983Z,27.58
2019-04-06T19:26:55.410Z,26.93
2019-04-06T19:29:58.786Z,26.42
2019-04-06T19:33:02.210Z,30.02
2019-04-06T19:36:05.594Z,24.52
2019-04-06T19:39:12.160Z,29.40
2019-04-06T19:42:15.593Z,25.37
2019-04-06T19:45:19.572Z,26.62
2019-04-06T19:48:23.425Z,29.50
2019-04-06T19:51:27.187Z,26.20
2019-04-06T19:54:30.596Z,23.80
2019-04-06T19:57:35.104Z,22.90
2019-04-06T20:00:39.159Z,22.52
2019-04-06T20:03:42.481Z,26.15
2019-04-06T20:06:46.630Z,27.07
2019-04-06T20:09:50.101Z,27.40
2019-04-06T20:12:53.630Z,24.85
2019-04-06T20:15:57.275Z,26.68
2019-04-06T20:19:00.607Z,27.98
2019-04-06T20:22:04.307Z,25.92
2019-04-06T20:25:08.356Z,25.30
2019-04-06T20:28:12.071Z,23.30
2019-04-06T20:31:18.499Z,21.05
2019-04-06T20:34:21.963Z,25.27
2019-04-06T20:37:25.305Z,27.75
2019-04-06T20:40:28.779Z,25.40
2019-04-06T20:43:32.182Z,28.42
2019-04-06T20:46:35.487Z,33.30
2019-04-06T20:49:38.812Z,29.95
2019-04-06T20:52:42.512Z,29.63
2019-04-06T20:55:46.289Z,33.70
2019-04-06T20:58:49.619Z,28.32
2019-04-06T21:01:53.167Z,30.27
2019-04-06T21:04:56.525Z,23.30
2019-04-06T21:08:02.348Z,28.02
2019-04-06T21:11:05.611Z,35.85
2019-04-06T21:14:09.176Z,28.65
2019-04-06T21:17:12.556Z,30.23
2019-04-06T21:20:16.236Z,31.30
2019-04-06T21:23:19.830Z,32.60
2019-04-06T21:26:23.703Z,32.70
2019-04-06T21:29:27.044Z,35.45
2019-04-06T21:32:31.016Z,32.83
2019-04-06T21:35:43.851Z,27.93
2019-04-06T21:38:47.180Z,30.90
2019-04-06T21:41:50.798Z,28.60
2019-04-06T21:44:54.516Z,31.40
2019-04-06T21:48:00.486Z,30.52
2019-04-06T21:51:04.439Z,27.80
2019-04-06T21:54:08.046Z,27.37
2019-04-06T21:57:11.475Z,28.65
2019-04-06T22:00:16.680Z,26.87
2019-04-06T22:03:20.702Z,26.42
2019-04-06T22:06:25.699Z,28.67
2019-04-06T22:09:29.753Z,31.45
2019-04-06T22:12:35.816Z,30.95
2019-04-06T22:15:39.155Z,27.27
2019-04-06T22:18:43.033Z,28.70
2019-04-06T22:21:47.344Z,30.27
2019-04-06T22:24:51.804Z,29.05
2019-04-06T22:27:57.161Z,35.13
2019-04-06T22:31:06.576Z,31.97
2019-04-06T22:34:10.789Z,29.45
2019-04-06T22:37:14.280Z,29.32
2019-04-06T22:40:18.128Z,30.50
2019-04-06T22:43:21.832Z,30.43
2019-04-06T22:46:25.410Z,29.37
2019-04-06T22:49:29.359Z,35.05
2019-04-06T22:52:33.144Z,27.62
2019-04-06T22:55:36.881Z,31.25
2019-04-06T22:58:40.357Z,31.17
2019-04-06T23:01:43.774Z,31.00
2019-04-06T23:04:52.393Z,34.53
2019-04-06T23:07:56.134Z,33.48
2019-04-06T23:10:59.768Z,34.58
2019-04-06T23:14:03.158Z,31.65
2019-04-06T23:17:06.472Z,36.13
2019-04-06T23:20:09.767Z,30.70
2019-04-06T23:23:13.083Z,31.73
2019-04-06T23:26:16.951Z,32.25
2019-04-06T23:29:20.368Z,32.35
2019-04-06T23:32:23.908Z,29.20
2019-04-06T23:35:27.332Z,33.28
2019-04-06T23:38:30.648Z,32.42
2019-04-06T23:41:34.658Z,33.13
2019-04-06T23:44:38.035Z,28.38
2019-04-06T23:47:41.374Z,31.02
2019-04-06T23:50:45.138Z,29.77
2019-04-06T23:53:48.983Z,34.35
2019-04-06T23:56:52.983Z,30.75
2019-04-06T23:59:56.400Z,36.15
